Time;durP1;ratioP1;P1;durP2;ratioP2;P2;SDS_P1;SDS_P2;PMS_P1;PMS_P2;Temp;Humidity;BMP_temperature;BMP_pressure;BME280_temperature;BME280_humidity;BME280_pressure;Samples;Min_cycle;Max_cycle;Signal;HPM_P1;HPM_P2
2022/02/15 00:01:24;;;;;;;2.63;1.05;;;;;;;;;;5014032;28;20056;-77
2022/02/15 00:03:52;;;;;;;2.63;0.88;;;;;;;;;;5029435;28;20594;-76
2022/02/15 00:06:18;;;;;;;2.22;1.00;;;;;;;;;;5029394;28;20121;-77
2022/02/15 00:08:44;;;;;;;2.65;0.85;;;;;;;;;;5014084;28;20104;-76
2022/02/15 00:11:10;;;;;;;4.10;1.17;;;;;;;;;;5014119;28;20084;-76
2022/02/15 00:13:36;;;;;;;2.75;0.98;;;;;;;;;;5014491;28;20033;-76
2022/02/15 00:16:02;;;;;;;3.10;1.10;;;;;;;;;;5014008;28;20034;-77
2022/02/15 00:18:28;;;;;;;3.65;1.20;;;;;;;;;;5013385;28;20065;-77
2022/02/15 00:20:54;;;;;;;3.78;1.33;;;;;;;;;;5013987;28;20038;-76
2022/02/15 00:23:20;;;;;;;3.58;0.90;;;;;;;;;;5013536;28;20048;-77
2022/02/15 00:25:46;;;;;;;1.80;0.90;;;;;;;;;;5028979;28;20037;-77
2022/02/15 00:28:12;;;;;;;3.40;1.10;;;;;;;;;;5027588;28;20041;-77
2022/02/15 00:30:38;;;;;;;3.50;1.30;;;;;;;;;;5029221;28;20509;-76
2022/02/15 00:33:04;;;;;;;2.65;0.98;;;;;;;;;;5013726;28;20026;-77
2022/02/15 00:35:30;;;;;;;2.55;0.75;;;;;;;;;;5013378;28;20033;-76
2022/02/15 00:37:56;;;;;;;3.08;1.02;;;;;;;;;;5013608;28;20045;-76
2022/02/15 00:40:22;;;;;;;3.95;1.50;;;;;;;;;;5013487;28;20021;-77
2022/02/15 00:42:48;;;;;;;4.78;0.90;;;;;;;;;;5028803;28;20060;-76
2022/02/15 00:45:14;;;;;;;2.25;0.80;;;;;;;;;;5028418;28;20030;-78
2022/02/15 00:47:40;;;;;;;1.98;0.80;;;;;;;;;;5013710;28;20034;-75
2022/02/15 00:50:06;;;;;;;3.28;0.80;;;;;;;;;;5028905;28;20525;-76
2022/02/15 00:52:33;;;;;;;2.95;0.90;;;;;;;;;;5013080;28;20053;-76
2022/02/15 00:54:59;;;;;;;2.70;1.05;;;;;;;;;;5028545;28;20084;-76
2022/02/15 00:57:25;;;;;;;2.33;0.90;;;;;;;;;;5028129;28;20056;-76
2022/02/15 00:59:51;;;;;;;6.78;1.08;;;;;;;;;;5013109;28;20057;-76
2022/02/15 01:02:18;;;;;;;2.63;0.90;;;;;;;;;;5012917;28;20018;-76
2022/02/15 01:04:44;;;;;;;2.47;0.98;;;;;;;;;;5012992;28;20044;-76
2022/02/15 01:07:10;;;;;;;3.08;0.85;;;;;;;;;;5028268;28;20113;-75
2022/02/15 01:09:36;;;;;;;3.63;0.88;;;;;;;;;;5028325;28;20026;-76
2022/02/15 01:12:02;;;;;;;2.88;0.90;;;;;;;;;;5012767;28;20049;-75
2022/02/15 01:14:28;;;;;;;3.38;1.10;;;;;;;;;;5012738;28;20034;-77
2022/02/15 01:16:54;;;;;;;4.18;1.00;;;;;;;;;;5027981;28;20029;-76
2022/02/15 01:19:20;;;;;;;3.67;1.00;;;;;;;;;;5012611;28;20026;-76
2022/02/15 01:21:46;;;;;;;3.28;1.20;;;;;;;;;;5012867;28;20097;-76
2022/02/15 01:24:12;;;;;;;3.28;0.90;;;;;;;;;;5027572;28;20026;-75
2022/02/15 01:26:38;;;;;;;3.63;1.00;;;;;;;;;;5027992;28;20532;-76
2022/02/15 01:29:04;;;;;;;3.25;0.98;;;;;;;;;;5012616;28;20038;-76
2022/02/15 01:31:30;;;;;;;4.10;1.10;;;;;;;;;;5027524;28;20026;-76
2022/02/15 01:33:56;;;;;;;1.60;0.63;;;;;;;;;;5012598;28;20045;-77
2022/02/15 01:36:22;;;;;;;7.15;1.60;;;;;;;;;;5027467;28;20033;-76
2022/02/15 01:38:48;;;;;;;2.60;0.93;;;;;;;;;;5027530;28;20034;-77
2022/02/15 01:41:14;;;;;;;2.58;1.10;;;;;;;;;;5027441;28;20489;-76
2022/02/15 01:43:42;;;;;;;3.05;1.00;;;;;;;;;;5027554;28;20037;-77
2022/02/15 01:46:08;;;;;;;2.88;1.05;;;;;;;;;;5012642;28;20409;-76
2022/02/15 01:48:35;;;;;;;2.88;0.90;;;;;;;;;;5011947;28;20040;-77
2022/02/15 01:51:02;;;;;;;4.68;0.95;;;;;;;;;;5027527;28;20379;-76
2022/02/15 01:53:28;;;;;;;3.13;1.02;;;;;;;;;;5011773;28;20033;-75
2022/02/15 01:55:54;;;;;;;2.05;1.10;;;;;;;;;;5012167;28;20025;-76
2022/02/15 01:58:20;;;;;;;2.08;0.80;;;;;;;;;;5011580;28;20038;-78
2022/02/15 02:00:46;;;;;;;1.95;0.70;;;;;;;;;;5011946;28;20405;-77
2022/02/15 02:03:12;;;;;;;2.42;1.00;;;;;;;;;;5011960;28;20026;-77
2022/02/15 02:05:47;;;;;;;3.75;1.33;;;;;;;;;;5012305;28;20393;-77
2022/02/15 02:08:13;;;;;;;2.70;0.82;;;;;;;;;;5026963;28;20025;-77
2022/02/15 02:10:39;;;;;;;2.28;1.05;;;;;;;;;;5011984;28;20034;-75
2022/02/15 02:13:05;;;;;;;2.28;0.82;;;;;;;;;;5012351;28;20066;-76
2022/02/15 02:15:31;;;;;;;2.00;0.88;;;;;;;;;;5011529;28;20383;-76
2022/02/15 02:17:58;;;;;;;3.05;0.90;;;;;;;;;;5011692;28;20073;-77
2022/02/15 02:20:25;;;;;;;2.08;0.73;;;;;;;;;;5011630;28;20559;-76
2022/02/15 02:22:51;;;;;;;4.15;1.15;;;;;;;;;;5011548;28;20101;-76
2022/02/15 02:25:18;;;;;;;3.25;1.08;;;;;;;;;;5011335;28;20045;-75
2022/02/15 02:27:44;;;;;;;2.80;0.90;;;;;;;;;;5011758;28;20061;-77
2022/02/15 02:30:10;;;;;;;6.03;1.60;;;;;;;;;;5011351;28;20101;-75
2022/02/15 02:32:37;;;;;;;3.67;0.88;;;;;;;;;;5011885;28;20026;-76
2022/02/15 02:35:05;;;;;;;2.25;0.80;;;;;;;;;;5011394;28;20034;-77
2022/02/15 02:37:31;;;;;;;4.35;1.45;;;;;;;;;;5011021;28;20080;-77
2022/02/15 02:39:57;;;;;;;3.15;1.08;;;;;;;;;;5011452;28;20030;-77
2022/02/15 02:42:26;;;;;;;2.05;0.95;;;;;;;;;;5011322;28;20028;-77
2022/02/15 02:44:52;;;;;;;2.45;0.82;;;;;;;;;;5026536;28;20022;-77
2022/02/15 02:47:19;;;;;;;6.45;1.23;;;;;;;;;;5011112;28;20017;-77
2022/02/15 02:49:45;;;;;;;1.77;0.80;;;;;;;;;;5011220;28;20029;-77
2022/02/15 02:52:11;;;;;;;2.67;0.85;;;;;;;;;;5010939;28;20497;-76
2022/02/15 02:54:37;;;;;;;1.65;0.73;;;;;;;;;;5026881;28;20452;-76
2022/02/15 02:57:03;;;;;;;6.40;1.00;;;;;;;;;;5026333;28;20041;-77
2022/02/15 02:59:30;;;;;;;3.92;1.08;;;;;;;;;;5011013;28;20032;-76
2022/02/15 03:01:56;;;;;;;3.25;1.08;;;;;;;;;;5011324;28;20037;-77
2022/02/15 03:04:23;;;;;;;3.83;1.25;;;;;;;;;;5010896;28;20026;-77
2022/02/15 03:06:49;;;;;;;3.45;0.85;;;;;;;;;;5011034;28;20025;-75
2022/02/15 03:09:15;;;;;;;2.05;1.00;;;;;;;;;;5026185;28;20044;-76
2022/02/15 03:11:41;;;;;;;2.72;0.70;;;;;;;;;;5011240;28;20022;-77
2022/02/15 03:14:07;;;;;;;2.00;0.73;;;;;;;;;;5011424;28;20429;-76
2022/02/15 03:16:33;;;;;;;3.63;1.05;;;;;;;;;;5010710;28;20112;-76
2022/02/15 03:19:00;;;;;;;3.42;0.82;;;;;;;;;;5010938;28;20037;-76
2022/02/15 03:21:26;;;;;;;2.33;1.05;;;;;;;;;;5010571;28;20046;-76
2022/02/15 03:23:53;;;;;;;3.60;0.85;;;;;;;;;;5026225;28;20034;-77
2022/02/15 03:26:19;;;;;;;4.13;0.93;;;;;;;;;;5010508;28;20037;-76
2022/02/15 03:28:45;;;;;;;4.03;0.90;;;;;;;;;;5026118;28;20061;-77
2022/02/15 03:31:12;;;;;;;2.05;0.70;;;;;;;;;;5010661;28;20054;-76
2022/02/15 03:33:38;;;;;;;3.22;1.08;;;;;;;;;;5011151;28;20100;-76
2022/02/15 03:36:04;;;;;;;2.05;0.60;;;;;;;;;;5026072;28;20440;-77
2022/02/15 03:38:30;;;;;;;3.60;1.10;;;;;;;;;;5010632;28;20575;-76
2022/02/15 03:43:41;;;;;;;2.70;1.13;;;;;;;;;;5010953;28;20549;-76
2022/02/15 03:46:07;;;;;;;2.05;0.88;;;;;;;;;;5010968;28;20025;-79
2022/02/15 03:48:33;;;;;;;2.47;0.85;;;;;;;;;;5025554;28;20021;-76
2022/02/15 03:50:59;;;;;;;2.17;1.10;;;;;;;;;;5010843;28;20034;-76
2022/02/15 03:53:25;;;;;;;2.97;0.90;;;;;;;;;;5025713;28;20018;-77
2022/02/15 03:55:51;;;;;;;2.47;0.93;;;;;;;;;;5010733;28;20030;-76
2022/02/15 03:58:17;;;;;;;4.05;1.10;;;;;;;;;;5010561;28;20064;-76
2022/02/15 04:00:43;;;;;;;3.35;1.00;;;;;;;;;;5025761;28;20037;-76
2022/02/15 04:03:09;;;;;;;1.90;0.60;;;;;;;;;;5012732;28;20029;-78
2022/02/15 04:05:35;;;;;;;2.58;0.93;;;;;;;;;;5029777;28;20057;-78
2022/02/15 04:08:01;;;;;;;3.65;0.90;;;;;;;;;;5029326;28;20037;-77
2022/02/15 04:10:27;;;;;;;7.47;1.27;;;;;;;;;;5013853;28;20034;-78
2022/02/15 04:12:53;;;;;;;4.07;1.10;;;;;;;;;;5013954;28;20193;-77
2022/02/15 04:15:20;;;;;;;2.58;0.70;;;;;;;;;;5013619;28;20026;-76
2022/02/15 04:17:46;;;;;;;3.03;0.70;;;;;;;;;;5013688;28;20076;-77
2022/02/15 04:20:12;;;;;;;2.42;0.90;;;;;;;;;;5029431;28;20033;-77
2022/02/15 04:22:39;;;;;;;1.80;0.60;;;;;;;;;;5014102;28;20101;-77
2022/02/15 04:25:05;;;;;;;3.35;0.98;;;;;;;;;;5012927;28;20037;-77
2022/02/15 04:27:31;;;;;;;3.50;0.80;;;;;;;;;;5013418;28;20018;-78
2022/02/15 04:29:58;;;;;;;3.22;0.93;;;;;;;;;;5013813;28;20026;-77
2022/02/15 04:32:24;;;;;;;2.45;0.90;;;;;;;;;;5013672;28;20025;-76
2022/02/15 04:34:50;;;;;;;2.30;0.70;;;;;;;;;;5045282;28;20038;-77
2022/02/15 04:37:16;;;;;;;2.67;0.85;;;;;;;;;;5013547;28;20478;-78
2022/02/15 04:39:43;;;;;;;2.22;0.80;;;;;;;;;;5045177;28;20029;-77
2022/02/15 04:42:09;;;;;;;3.00;0.80;;;;;;;;;;5045396;28;20075;-76
2022/02/15 04:44:36;;;;;;;2.47;1.00;;;;;;;;;;5045194;28;20029;-76
2022/02/15 04:47:02;;;;;;;2.90;0.70;;;;;;;;;;5044879;28;20565;-76
2022/02/15 04:49:28;;;;;;;3.10;0.73;;;;;;;;;;5045022;28;20402;-78
2022/02/15 04:51:55;;;;;;;1.75;0.65;;;;;;;;;;5044697;28;20026;-77
2022/02/15 04:54:22;;;;;;;3.42;0.70;;;;;;;;;;5013158;28;20552;-77
2022/02/15 04:56:48;;;;;;;4.28;1.10;;;;;;;;;;5044815;28;20112;-78
2022/02/15 04:59:14;;;;;;;4.00;0.68;;;;;;;;;;5045024;28;20172;-76
2022/02/15 05:01:40;;;;;;;2.58;0.70;;;;;;;;;;5013132;28;20025;-77
2022/02/15 05:04:48;;;;;;;2.35;0.95;;;;;;;;;;5045087;28;20025;-77
2022/02/15 05:06:52;;;;;;;2.60;0.82;;;;;;;;;;5012621;28;20018;-77
2022/02/15 05:09:18;;;;;;;2.92;0.93;;;;;;;;;;5044566;28;20040;-76
2022/02/15 05:11:44;;;;;;;2.28;1.00;;;;;;;;;;5044480;28;20030;-76
2022/02/15 05:14:10;;;;;;;1.77;0.65;;;;;;;;;;5044250;28;20030;-76
2022/02/15 05:16:36;;;;;;;1.90;0.77;;;;;;;;;;5044038;28;20445;-76
2022/02/15 05:19:02;;;;;;;2.03;0.65;;;;;;;;;;4993233;28;20072;-75
2022/02/15 05:21:28;;;;;;;3.47;0.75;;;;;;;;;;4992987;28;20097;-76
2022/02/15 05:23:54;;;;;;;2.38;0.70;;;;;;;;;;5007797;28;20553;-76
2022/02/15 05:26:20;;;;;;;2.55;0.70;;;;;;;;;;5008080;28;20044;-76
2022/02/15 05:28:46;;;;;;;1.80;0.63;;;;;;;;;;4992821;28;20457;-76
2022/02/15 05:31:12;;;;;;;3.22;0.98;;;;;;;;;;4993038;28;20026;-76
2022/02/15 05:33:38;;;;;;;2.20;0.70;;;;;;;;;;4993010;28;20038;-76
2022/02/15 05:36:05;;;;;;;1.92;0.60;;;;;;;;;;4992756;28;20097;-75
2022/02/15 05:38:31;;;;;;;2.42;0.90;;;;;;;;;;4992380;28;20072;-76
2022/02/15 05:40:57;;;;;;;2.83;0.85;;;;;;;;;;4992530;28;20482;-77
2022/02/15 05:43:23;;;;;;;3.03;0.63;;;;;;;;;;4992766;28;20118;-76
2022/02/15 05:45:49;;;;;;;2.25;0.80;;;;;;;;;;4992536;28;20026;-76
2022/02/15 05:48:15;;;;;;;1.63;0.80;;;;;;;;;;4992772;28;20165;-76
2022/02/15 05:50:50;;;;;;;2.67;0.80;;;;;;;;;;4992755;28;20482;-77
2022/02/15 05:53:20;;;;;;;4.13;0.88;;;;;;;;;;4992516;28;20026;-76
2022/02/15 05:55:48;;;;;;;2.33;0.77;;;;;;;;;;4992327;28;20073;-76
2022/02/15 05:58:15;;;;;;;1.90;0.52;;;;;;;;;;4992485;28;20043;-76
2022/02/15 06:00:41;;;;;;;2.55;0.88;;;;;;;;;;4992620;28;20372;-78
2022/02/15 06:04:09;;;;;;;1.55;0.60;;;;;;;;;;5007660;28;20117;-76
2022/02/15 06:05:53;;;;;;;2.05;0.55;;;;;;;;;;4992190;28;20034;-76
2022/02/15 06:08:19;;;;;;;2.45;0.70;;;;;;;;;;4992289;28;20027;-77
2022/02/15 06:10:48;;;;;;;4.65;0.82;;;;;;;;;;4991980;28;20080;-76
2022/02/15 06:13:15;;;;;;;4.07;1.23;;;;;;;;;;4992207;28;20037;-76
2022/02/15 06:15:41;;;;;;;2.28;0.73;;;;;;;;;;5007266;28;20026;-76
2022/02/15 06:18:07;;;;;;;2.90;0.52;;;;;;;;;;5004708;28;20029;-76
2022/02/15 06:20:33;;;;;;;1.88;0.57;;;;;;;;;;5011226;28;20033;-77
2022/02/15 06:22:59;;;;;;;2.00;0.52;;;;;;;;;;5026890;28;20025;-76
2022/02/15 06:25:25;;;;;;;2.20;0.90;;;;;;;;;;5025944;28;20109;-76
2022/02/15 06:27:51;;;;;;;2.17;0.73;;;;;;;;;;5011500;28;20104;-75
2022/02/15 06:30:18;;;;;;;1.40;0.55;;;;;;;;;;5011664;28;20367;-77
2022/02/15 06:32:44;;;;;;;2.78;0.63;;;;;;;;;;5011716;28;20501;-75
2022/02/15 06:35:10;;;;;;;2.85;0.82;;;;;;;;;;5010996;28;20505;-76
2022/02/15 06:37:36;;;;;;;4.03;0.60;;;;;;;;;;5010825;28;20079;-76
2022/02/15 06:40:03;;;;;;;2.42;0.93;;;;;;;;;;5011584;28;20097;-76
2022/02/15 06:42:30;;;;;;;2.35;0.70;;;;;;;;;;5026536;28;20033;-76
2022/02/15 06:44:57;;;;;;;2.42;0.80;;;;;;;;;;5026440;28;20033;-76
2022/02/15 06:47:24;;;;;;;1.95;0.68;;;;;;;;;;5026307;28;20041;-75
2022/02/15 06:49:50;;;;;;;2.72;0.80;;;;;;;;;;5026329;28;20041;-75
2022/02/15 06:52:16;;;;;;;3.28;1.10;;;;;;;;;;5026746;28;20022;-75
2022/02/15 06:54:42;;;;;;;2.22;0.70;;;;;;;;;;5011337;28;20034;-75
2022/02/15 06:57:08;;;;;;;1.67;0.63;;;;;;;;;;5026492;28;20081;-75
2022/02/15 06:59:34;;;;;;;3.45;0.90;;;;;;;;;;5026108;28;20449;-75
2022/02/15 07:02:00;;;;;;;2.50;0.80;;;;;;;;;;5011300;28;20030;-76
2022/02/15 07:04:26;;;;;;;2.40;0.60;;;;;;;;;;5010998;28;20030;-76
2022/02/15 07:06:53;;;;;;;2.05;0.57;;;;;;;;;;5010900;28;20022;-75
2022/02/15 07:09:19;;;;;;;3.33;0.80;;;;;;;;;;5011175;28;20025;-76
2022/02/15 07:11:45;;;;;;;2.63;0.82;;;;;;;;;;5026375;28;20466;-75
2022/02/15 07:14:11;;;;;;;2.70;0.70;;;;;;;;;;5026143;28;20022;-77
2022/02/15 07:16:38;;;;;;;2.53;0.70;;;;;;;;;;5010886;28;20455;-77
2022/02/15 07:19:04;;;;;;;3.08;0.90;;;;;;;;;;5010719;28;20034;-76
2022/02/15 07:21:33;;;;;;;1.55;0.80;;;;;;;;;;5010907;28;20482;-76
2022/02/15 07:23:59;;;;;;;2.30;0.73;;;;;;;;;;5026237;28;20052;-76
2022/02/15 07:26:25;;;;;;;2.95;0.82;;;;;;;;;;5010798;28;20029;-76
2022/02/15 07:28:51;;;;;;;2.10;0.60;;;;;;;;;;5026057;28;20030;-77
2022/02/15 07:31:17;;;;;;;3.45;0.80;;;;;;;;;;5026387;28;20037;-76
2022/02/15 07:33:43;;;;;;;3.92;0.90;;;;;;;;;;5026384;28;20401;-74
2022/02/15 07:36:09;;;;;;;2.67;0.70;;;;;;;;;;5026537;28;20032;-77
2022/02/15 07:38:35;;;;;;;4.28;1.08;;;;;;;;;;5028966;28;20030;-78
2022/02/15 07:41:01;;;;;;;2.25;0.70;;;;;;;;;;5029487;28;20406;-75
2022/02/15 07:43:27;;;;;;;2.47;0.70;;;;;;;;;;5014693;28;20032;-76
2022/02/15 07:45:53;;;;;;;2.15;0.80;;;;;;;;;;5027662;28;20034;-76
2022/02/15 07:48:20;;;;;;;3.10;0.80;;;;;;;;;;5013346;28;20030;-77
2022/02/15 07:50:46;;;;;;;2.17;0.88;;;;;;;;;;5028673;28;20034;-77
2022/02/15 07:53:14;;;;;;;1.98;0.95;;;;;;;;;;5013181;28;20026;-77
2022/02/15 07:55:40;;;;;;;2.22;0.70;;;;;;;;;;5013237;28;20033;-77
2022/02/15 07:58:06;;;;;;;4.03;1.25;;;;;;;;;;5013813;28;20116;-76
2022/02/15 08:00:32;;;;;;;2.13;0.73;;;;;;;;;;5028724;28;20026;-76
2022/02/15 08:02:58;;;;;;;2.33;0.90;;;;;;;;;;5011906;28;20030;-77
2022/02/15 08:05:25;;;;;;;4.00;0.75;;;;;;;;;;5027869;28;20026;-76
2022/02/15 08:07:53;;;;;;;2.17;0.93;;;;;;;;;;5011844;28;20057;-77
2022/02/15 08:10:20;;;;;;;3.38;0.75;;;;;;;;;;5008930;28;20026;-77
2022/02/15 08:12:57;;;;;;;4.13;1.10;;;;;;;;;;5027297;28;20032;-78
2022/02/15 08:15:23;;;;;;;3.78;0.82;;;;;;;;;;5009962;28;20104;-78
2022/02/15 08:17:50;;;;;;;3.53;0.93;;;;;;;;;;5027456;28;20088;-79
2022/02/15 08:20:16;;;;;;;4.18;1.20;;;;;;;;;;5014258;28;20033;-78
2022/02/15 08:22:42;;;;;;;4.55;1.00;;;;;;;;;;5012597;28;20026;-77
2022/02/15 08:25:08;;;;;;;4.28;1.23;;;;;;;;;;5013645;28;20029;-77
2022/02/15 08:27:34;;;;;;;3.05;0.55;;;;;;;;;;5012000;28;20124;-78
2022/02/15 08:30:01;;;;;;;3.28;0.60;;;;;;;;;;5013550;28;20097;-77
2022/02/15 08:32:27;;;;;;;2.17;0.68;;;;;;;;;;5012881;28;20040;-78
2022/02/15 08:34:53;;;;;;;3.95;1.15;;;;;;;;;;5013124;28;20129;-77
2022/02/15 08:37:19;;;;;;;7.53;0.90;;;;;;;;;;5027409;28;20039;-78
2022/02/15 08:39:46;;;;;;;6.90;1.05;;;;;;;;;;5027632;28;20032;-77
2022/02/15 08:42:12;;;;;;;4.03;1.30;;;;;;;;;;5011597;28;20033;-78
2022/02/15 08:44:38;;;;;;;7.75;1.10;;;;;;;;;;5027334;28;20025;-78
2022/02/15 08:47:06;;;;;;;5.78;1.73;;;;;;;;;;5014444;28;20413;-77
2022/02/15 08:49:32;;;;;;;8.93;1.67;;;;;;;;;;5043591;28;20029;-78
2022/02/15 08:51:58;;;;;;;5.80;1.48;;;;;;;;;;5012208;28;20030;-78
2022/02/15 08:54:24;;;;;;;4.10;1.75;;;;;;;;;;5027305;28;20124;-77
2022/02/15 08:56:50;;;;;;;7.20;1.48;;;;;;;;;;5012287;28;20748;-77
2022/02/15 08:59:16;;;;;;;3.78;1.20;;;;;;;;;;5012523;28;20034;-79
2022/02/15 09:01:42;;;;;;;8.52;1.90;;;;;;;;;;5010364;28;20072;-77
2022/02/15 09:04:09;;;;;;;4.13;1.10;;;;;;;;;;5028441;28;20037;-77
2022/02/15 09:06:36;;;;;;;3.92;1.20;;;;;;;;;;5011686;28;20397;-77
2022/02/15 09:09:03;;;;;;;7.20;1.35;;;;;;;;;;5012529;28;20018;-77
2022/02/15 09:11:29;;;;;;;5.05;1.17;;;;;;;;;;5012338;28;20030;-78
2022/02/15 09:13:55;;;;;;;5.40;1.10;;;;;;;;;;5027545;28;20022;-76
2022/02/15 09:16:21;;;;;;;5.13;1.48;;;;;;;;;;5028110;28;20034;-76
2022/02/15 09:18:47;;;;;;;4.30;1.20;;;;;;;;;;5027781;28;20697;-76
2022/02/15 09:21:15;;;;;;;4.97;1.20;;;;;;;;;;5026987;28;20033;-76
2022/02/15 09:23:41;;;;;;;3.78;1.05;;;;;;;;;;5027007;28;20265;-77
2022/02/15 09:26:09;;;;;;;6.07;1.17;;;;;;;;;;5011381;28;20096;-79
2022/02/15 09:28:35;;;;;;;4.35;1.23;;;;;;;;;;5027434;28;20057;-77
2022/02/15 09:31:01;;;;;;;5.40;1.33;;;;;;;;;;5027344;28;20025;-77
2022/02/15 09:33:27;;;;;;;5.38;1.13;;;;;;;;;;5026238;28;20034;-78
2022/02/15 09:35:53;;;;;;;5.30;1.17;;;;;;;;;;5012091;28;20029;-78
2022/02/15 09:38:20;;;;;;;4.93;1.10;;;;;;;;;;5027011;28;20052;-77
2022/02/15 09:40:49;;;;;;;5.70;1.13;;;;;;;;;;5000935;28;20485;-76
2022/02/15 09:43:15;;;;;;;5.93;1.30;;;;;;;;;;5010671;28;20034;-76
2022/02/15 09:45:42;;;;;;;7.82;1.10;;;;;;;;;;5010766;28;20026;-77
2022/02/15 09:48:09;;;;;;;8.68;1.63;;;;;;;;;;5012180;28;20516;-77
2022/02/15 09:50:36;;;;;;;15.10;1.17;;;;;;;;;;5010214;28;20026;-76
2022/02/15 09:53:02;;;;;;;4.10;1.27;;;;;;;;;;5010708;28;20500;-77
2022/02/15 09:55:28;;;;;;;5.10;1.13;;;;;;;;;;5011666;28;20022;-75
2022/02/15 09:57:54;;;;;;;4.07;1.27;;;;;;;;;;5011940;28;20521;-77
2022/02/15 10:00:22;;;;;;;9.55;1.20;;;;;;;;;;5026372;28;20018;-76
2022/02/15 10:02:51;;;;;;;5.70;1.08;;;;;;;;;;5026847;28;20114;-77
2022/02/15 10:05:18;;;;;;;9.90;1.52;;;;;;;;;;5026011;28;20069;-77
2022/02/15 10:07:48;;;;;;;8.32;1.50;;;;;;;;;;5010221;28;20490;-77
2022/02/15 10:10:16;;;;;;;4.55;1.33;;;;;;;;;;5011591;28;20018;-77
2022/02/15 10:12:42;;;;;;;4.10;1.08;;;;;;;;;;5010007;28;20061;-77
2022/02/15 10:15:09;;;;;;;6.78;1.38;;;;;;;;;;5009855;28;20064;-77
2022/02/15 10:17:37;;;;;;;4.47;0.80;;;;;;;;;;5023962;28;20036;-77
2022/02/15 10:20:03;;;;;;;5.18;1.20;;;;;;;;;;5008834;28;20033;-77
2022/02/15 10:22:30;;;;;;;6.32;1.38;;;;;;;;;;5006229;28;20026;-77
2022/02/15 10:25:02;;;;;;;5.97;1.02;;;;;;;;;;5010988;28;20041;-77
2022/02/15 10:27:34;;;;;;;3.15;0.90;;;;;;;;;;5010906;28;20033;-77
2022/02/15 10:30:03;;;;;;;3.28;1.20;;;;;;;;;;5025645;28;20100;-78
2022/02/15 10:32:29;;;;;;;7.00;1.30;;;;;;;;;;5026219;28;20032;-77
2022/02/15 10:34:57;;;;;;;4.32;0.98;;;;;;;;;;5010887;28;20022;-77
2022/02/15 10:37:27;;;;;;;3.42;1.45;;;;;;;;;;5025183;28;20032;-77
2022/02/15 10:39:55;;;;;;;5.63;0.85;;;;;;;;;;4996374;28;20025;-76
2022/02/15 10:42:22;;;;;;;4.60;1.40;;;;;;;;;;5010809;28;20092;-77
2022/02/15 10:44:52;;;;;;;4.45;1.55;;;;;;;;;;5010787;28;20080;-78
2022/02/15 10:47:19;;;;;;;3.88;1.00;;;;;;;;;;5010245;28;20030;-77
2022/02/15 10:49:45;;;;;;;4.10;0.90;;;;;;;;;;5010172;28;20505;-77
2022/02/15 10:52:13;;;;;;;7.45;0.80;;;;;;;;;;5009920;28;20097;-78
2022/02/15 10:54:39;;;;;;;3.58;0.90;;;;;;;;;;5008936;28;20057;-79
2022/02/15 10:57:05;;;;;;;6.53;0.85;;;;;;;;;;5024880;28;20028;-76
2022/02/15 10:59:33;;;;;;;5.18;1.02;;;;;;;;;;5009810;28;20088;-77
2022/02/15 11:02:02;;;;;;;5.97;1.10;;;;;;;;;;5010435;28;20505;-78
2022/02/15 11:04:32;;;;;;;3.20;0.80;;;;;;;;;;5010415;28;20034;-78
2022/02/15 11:07:05;;;;;;;4.30;1.38;;;;;;;;;;5009332;28;20037;-79
2022/02/15 11:09:33;;;;;;;8.45;1.10;;;;;;;;;;5006980;28;20025;-79
2022/02/15 11:12:02;;;;;;;6.18;1.20;;;;;;;;;;5011849;28;20056;-78
2022/02/15 11:14:28;;;;;;;8.13;1.25;;;;;;;;;;5010360;28;20030;-81
2022/02/15 11:16:54;;;;;;;5.43;1.08;;;;;;;;;;5012500;28;20084;-81
2022/02/15 11:19:21;;;;;;;6.80;1.30;;;;;;;;;;5013253;28;20042;-85
2022/02/15 11:21:54;;;;;;;9.35;1.60;;;;;;;;;;5011388;28;20132;-83
2022/02/15 11:24:20;;;;;;;4.57;1.08;;;;;;;;;;5029093;28;20025;-83
2022/02/15 11:26:46;;;;;;;11.07;1.38;;;;;;;;;;5012697;28;20022;-83
2022/02/15 11:29:25;;;;;;;7.80;1.17;;;;;;;;;;5012709;28;20032;-83
2022/02/15 11:31:53;;;;;;;7.72;1.10;;;;;;;;;;5014554;28;20033;-85
2022/02/15 11:34:28;;;;;;;5.93;1.77;;;;;;;;;;5031746;28;20032;-82
2022/02/15 11:36:55;;;;;;;4.10;1.70;;;;;;;;;;5027054;28;20037;-78
2022/02/15 11:39:25;;;;;;;6.05;1.48;;;;;;;;;;5014491;28;20063;-83
2022/02/15 11:41:52;;;;;;;7.53;1.92;;;;;;;;;;5013774;28;20415;-83
2022/02/15 11:44:31;;;;;;;8.52;1.60;;;;;;;;;;5029581;28;20152;-84
2022/02/15 11:47:11;;;;;;;4.30;1.38;;;;;;;;;;5028751;28;20528;-80
2022/02/15 11:49:37;;;;;;;7.18;1.50;;;;;;;;;;5002851;28;20072;-86
2022/02/15 11:52:03;;;;;;;4.80;1.33;;;;;;;;;;5027709;28;20034;-86
2022/02/15 11:54:33;;;;;;;4.70;1.33;;;;;;;;;;5013015;28;20061;-86
2022/02/15 11:57:00;;;;;;;11.13;2.13;;;;;;;;;;5012243;28;20076;-86
2022/02/15 11:59:26;;;;;;;8.77;2.08;;;;;;;;;;5011741;28;20040;-84
2022/02/15 12:02:01;;;;;;;7.88;2.35;;;;;;;;;;5012384;28;20022;-86
2022/02/15 12:04:28;;;;;;;12.70;2.30;;;;;;;;;;5012604;28;20018;-86
2022/02/15 12:06:54;;;;;;;8.30;1.95;;;;;;;;;;5013119;28;20033;-79
2022/02/15 12:09:30;;;;;;;9.77;2.05;;;;;;;;;;5028849;28;20036;-77
2022/02/15 12:11:57;;;;;;;8.60;1.90;;;;;;;;;;5027930;28;20072;-80
2022/02/15 12:14:24;;;;;;;9.60;1.85;;;;;;;;;;5013315;28;20386;-83
2022/02/15 12:16:57;;;;;;;10.20;2.25;;;;;;;;;;5013144;28;20038;-79
2022/02/15 12:19:30;;;;;;;11.50;1.70;;;;;;;;;;5013702;28;20095;-79
2022/02/15 12:21:57;;;;;;;6.70;1.60;;;;;;;;;;5013650;28;20052;-75
2022/02/15 12:24:23;;;;;;;6.32;1.65;;;;;;;;;;5012452;28;20098;-80
2022/02/15 12:26:50;;;;;;;7.10;1.80;;;;;;;;;;5028248;28;20036;-82
2022/02/15 12:29:16;;;;;;;12.20;1.75;;;;;;;;;;5015813;28;20033;-81
2022/02/15 12:31:42;;;;;;;6.55;1.40;;;;;;;;;;5013544;28;20018;-81
2022/02/15 12:34:12;;;;;;;4.22;1.40;;;;;;;;;;5029097;28;20032;-83
2022/02/15 12:36:38;;;;;;;5.18;1.85;;;;;;;;;;5029253;28;20030;-80
2022/02/15 12:39:06;;;;;;;5.72;1.35;;;;;;;;;;5028927;28;20045;-80
2022/02/15 12:41:36;;;;;;;8.57;1.40;;;;;;;;;;5028402;28;20033;-78
2022/02/15 12:44:03;;;;;;;8.00;1.83;;;;;;;;;;5013635;28;20025;-80
2022/02/15 12:46:29;;;;;;;9.60;1.58;;;;;;;;;;5029069;28;20028;-79
2022/02/15 12:48:55;;;;;;;5.05;1.63;;;;;;;;;;5013555;28;20084;-79
2022/02/15 12:51:21;;;;;;;6.35;1.30;;;;;;;;;;5013146;28;20449;-80
2022/02/15 12:53:51;;;;;;;5.20;1.70;;;;;;;;;;5028022;28;20030;-81
2022/02/15 12:56:21;;;;;;;3.95;1.30;;;;;;;;;;5029981;28;20092;-82
2022/02/15 12:58:48;;;;;;;8.35;1.45;;;;;;;;;;5028050;28;20046;-80
2022/02/15 13:01:15;;;;;;;5.80;1.42;;;;;;;;;;5012266;28;20041;-79
2022/02/15 13:03:43;;;;;;;3.72;1.17;;;;;;;;;;5026521;28;20398;-80
2022/02/15 13:06:10;;;;;;;5.40;1.48;;;;;;;;;;5010635;28;20030;-79
2022/02/15 13:08:53;;;;;;;5.68;1.33;;;;;;;;;;5026367;28;20121;-81
2022/02/15 13:11:24;;;;;;;12.00;1.70;;;;;;;;;;5009213;28;20111;-81
2022/02/15 13:13:50;;;;;;;7.85;1.55;;;;;;;;;;5025933;28;20032;-82
2022/02/15 13:16:16;;;;;;;9.50;1.55;;;;;;;;;;5026452;28;20144;-81
2022/02/15 13:18:47;;;;;;;6.25;1.20;;;;;;;;;;5010788;28;20026;-82
2022/02/15 13:21:17;;;;;;;4.55;1.35;;;;;;;;;;5025832;28;20072;-83
2022/02/15 13:24:00;;;;;;;8.63;2.13;;;;;;;;;;5007598;28;20030;-83
2022/02/15 13:26:32;;;;;;;6.75;2.05;;;;;;;;;;5036095;28;20088;-83
2022/02/15 13:28:59;;;;;;;6.30;1.80;;;;;;;;;;5011044;28;20029;-82
2022/02/15 13:31:25;;;;;;;4.57;1.75;;;;;;;;;;5010811;28;20037;-82
2022/02/15 13:33:52;;;;;;;4.75;1.75;;;;;;;;;;5010041;28;20107;-82
2022/02/15 13:36:30;;;;;;;6.82;1.48;;;;;;;;;;5010433;28;20116;-81
2022/02/15 13:38:56;;;;;;;6.65;1.80;;;;;;;;;;5036066;28;20549;-81
2022/02/15 13:41:22;;;;;;;5.00;1.58;;;;;;;;;;5010893;28;20033;-82
2022/02/15 13:43:58;;;;;;;5.82;1.77;;;;;;;;;;5011108;28;20474;-82
2022/02/15 13:46:29;;;;;;;7.97;2.15;;;;;;;;;;5009297;28;20030;-82
2022/02/15 13:48:56;;;;;;;7.57;1.90;;;;;;;;;;5010751;28;20474;-81
2022/02/15 13:51:22;;;;;;;5.72;1.70;;;;;;;;;;5025655;28;20112;-82
2022/02/15 13:53:48;;;;;;;4.88;1.77;;;;;;;;;;5025787;28;20026;-82
2022/02/15 13:56:14;;;;;;;6.18;1.98;;;;;;;;;;5011115;28;20022;-83
2022/02/15 13:58:40;;;;;;;8.15;2.40;;;;;;;;;;5025577;28;20029;-82
2022/02/15 14:01:06;;;;;;;4.47;1.45;;;;;;;;;;5010467;28;20084;-82
2022/02/15 14:03:32;;;;;;;5.18;1.85;;;;;;;;;;5011047;28;20437;-81
2022/02/15 14:05:58;;;;;;;5.03;1.45;;;;;;;;;;5025407;28;20021;-82
2022/02/15 14:08:25;;;;;;;3.78;1.50;;;;;;;;;;5010435;28;20128;-81
2022/02/15 14:10:50;;;;;;;4.53;1.45;;;;;;;;;;5009745;28;20033;-81
2022/02/15 14:13:16;;;;;;;6.07;1.10;;;;;;;;;;5008256;28;20432;-81
2022/02/15 14:15:43;;;;;;;5.22;1.30;;;;;;;;;;5010868;28;20033;-80
2022/02/15 14:18:09;;;;;;;6.50;2.00;;;;;;;;;;5010806;28;20048;-82
2022/02/15 14:20:35;;;;;;;2.90;1.05;;;;;;;;;;5010648;28;20034;-82
2022/02/15 14:23:01;;;;;;;5.13;1.50;;;;;;;;;;5009544;28;20026;-78
2022/02/15 14:25:28;;;;;;;3.95;1.42;;;;;;;;;;5011302;28;20176;-78
2022/02/15 14:28:03;;;;;;;6.40;1.40;;;;;;;;;;5010826;28;20493;-81
2022/02/15 14:30:29;;;;;;;3.42;1.30;;;;;;;;;;5007529;28;20504;-79
2022/02/15 14:32:58;;;;;;;3.75;1.52;;;;;;;;;;5026446;28;20025;-81
2022/02/15 14:35:26;;;;;;;5.28;1.75;;;;;;;;;;5011339;28;20057;-81
2022/02/15 14:37:53;;;;;;;6.70;1.35;;;;;;;;;;5010779;28;20021;-81
2022/02/15 14:40:20;;;;;;;5.10;1.60;;;;;;;;;;5026250;28;20571;-81
2022/02/15 14:42:46;;;;;;;7.40;1.38;;;;;;;;;;5025868;28;20397;-80
2022/02/15 14:45:12;;;;;;;3.90;1.48;;;;;;;;;;5010871;28;20030;-81